ADDS METAR Data INFO
IDs: Format: Raw Decoded Include TAF

Data at: 1416 UTC 12 Dec 2017

KFLG 121357Z 06005KT 10SM CLR M06/M19 A3046 RMK AO2 SLP336 T10611194
KFLG 121257Z AUTO 00000KT 10SM CLR M07/M21 A3046 RMK AO2 SLP326 T10671211
KFLG 121157Z AUTO 00000KT 10SM CLR M07/M21 A3047 RMK AO2 SLP312 T10721211 11067 21083 50003
KFLG 121057Z AUTO 00000KT 10SM CLR M08/M21 A3047 RMK AO2 SLP309 T10781206
KFLG 120957Z AUTO 04004KT 10SM CLR M08/M22 A3046 RMK AO2 SLP313 T10781217
KFLG 120857Z AUTO 00000KT 10SM CLR M07/M22 A3046 RMK AO2 SLP312 T10721222 56003
KFLG 120757Z AUTO 00000KT 10SM CLR M08/M23 A3046 RMK AO2 SLP305 T10781228
KFLG 120657Z AUTO 00000KT 10SM CLR M07/M23 A3046 RMK AO2 SLP304 T10721233 400941111
KFLG 120557Z AUTO 00000KT 10SM CLR M07/M23 A3047 RMK AO2 SLP319 T10721228 10072 21072 51006
KFLG 120457Z AUTO 00000KT 10SM CLR M07/M22 A3046 RMK AO2 SLP321 T10671222
KFLG 120357Z AUTO 00000KT 10SM CLR M05/M22 A3046 RMK AO2 SLP338 T10501222
KFLG 120257Z AUTO 00000KT 10SM CLR M04/M23 A3044 RMK AO2 SLP348 T10441228 50005
KFLG 120157Z 00000KT 10SM CLR M03/M23 A3045 RMK AO2 SLP339 T10281228
KFLG 120057Z 00000KT 10SM CLR 01/M23 A3044 RMK AO2 SLP328 T00111228
KFLG 112357Z 08006KT 10SM CLR 07/M24 A3043 RMK AO2 SLP304 T00721244 10094 20044 55000
KFLG 112257Z 08008KT 10SM CLR 09/M22 A3042 RMK AO2 SLP293 T00891222
KFLG 112157Z 10007KT 10SM CLR 07/M21 A3043 RMK AO2 SLP298 T00671211
KFLG 112057Z 08008KT 10SM CLR 06/M21 A3043 RMK AO2 SLP298 T00561206
KFLG 111957Z 08011KT 10SM CLR 08/M26 A3043 RMK AO2 SLP287 T00831256
KFLG 111857Z 05008KT 10SM CLR 09/M23 A3047 RMK AO2 SLP298 T00891233
KFLG 111757Z 09009KT 10SM CLR 04/M20 A3049 RMK AO2 SLP318 T00441200 10044 21111 50004
KFLG 111657Z 09005KT 10SM CLR 03/M19 A3049 RMK AO2 SLP318 T00281189
KFLG 111557Z 00000KT 10SM CLR M06/M19 A3048 RMK AO2 SLP329 T10561194
KFLG 111457Z 00000KT 10SM CLR M11/M21 A3048 RMK AO2 SLP342 T11061206 51004
KFLG 111357Z AUTO VRB05KT 10SM CLR M08/M21 A3048 RMK AO2 SLP332 T10831206
KFLG 111257Z AUTO 05004KT 10SM CLR M10/M22 A3047 RMK AO2 SLP337 T11001217
KFLG 111157Z AUTO 03005KT 10SM CLR M10/M22 A3046 RMK AO2 SLP324 T11001217 11022 21100 58005
KFLG 111057Z AUTO 04004KT 10SM CLR M08/M22 A3047 RMK AO2 SLP313 T10831222
KFLG 110957Z AUTO 00000KT 10SM CLR M07/M22 A3048 RMK AO2 SLP305 T10721217
KFLG 110857Z AUTO 10004KT 10SM CLR M06/M22 A3048 RMK AO2 SLP303 T10611222 57003
KFLG 110757Z AUTO 11005KT 10SM CLR M04/M22 A3049 RMK AO2 SLP302 T10441222
KFLG 110657Z AUTO 09005KT 10SM CLR M04/M23 A3049 RMK AO2 SLP309 T10441228 401001100
KFLG 110557Z AUTO 08006KT 10SM CLR M03/M24 A3049 RMK AO2 SLP308 T10331239 10056 21039 53006
KFLG 110457Z AUTO 08004KT 10SM CLR M02/M24 A3048 RMK AO2 SLP301 T10171244
KFLG 110357Z AUTO 08008KT 10SM CLR 01/M25 A3047 RMK AO2 SLP301 T00111250
KFLG 110257Z AUTO 10007KT 10SM CLR 02/M23 A3047 RMK AO2 SLP317 T00171228 53002